• Join FlightAware (Why Join?)
  • Login
  • US Flag 
05:04PM EDT


 

Airport Tracker/Info


-or-


 

Live Flight TrackerFlight Track Log ✈ SWA1586 ✈ 28-Apr-2013 ✈ KDEN - KSTL

Flight Track Log - Related Links

Times and Time Zones

All times are in EDT time to prevent confusion due to time zone crossing. See the SWA1586 flight status page for this flight to view local times or setup timezone preferences in your user account.

Time Position Orientation Groundspeed Altitude Reporting Facility
EDT Latitude Longitude Course Direction KTS MPH feet Rate Location/Type
11:49PM 39.8728 -104.5911 111° Southeast 181 208 6,900  Level Denver Center
11:50PM 39.8517 -104.5186 111° Southeast 213 245 10,100 2,760 Climbing Denver Center
11:51PM 39.8272 -104.4044 106° East 306 352 12,600 3,060 Climbing Denver Center
11:52PM 39.8114 -104.2831 100° East 340 391 16,400 3,480 Climbing Denver Center
11:53PM 39.7939 -104.1467 99° East 380 437 19,700 2,820 Climbing Denver Center
11:54PM 39.7764 -104.0083 99° East 399 459 22,200 2,460 Climbing Denver Center
11:55PM 39.7544 -103.8531 100° East 419 482 24,800 2,460 Climbing Denver Center
11:56PM 39.7381 -103.6967 98° East 429 494 27,300 2,280 Climbing Denver Center
11:57PM 39.7250 -103.5308 96° East 453 521 29,500 2,100 Climbing Denver Center
11:58PM 39.7114 -103.3597 96° East 470 541 31,600 2,100 Climbing Denver Center
11:59PM 39.7011 -103.1842 94° East 482 555 33,800 2,160 Climbing Denver Center
12:00AM 39.6969 -103.0125 92° East 474 545 36,100 2,040 Climbing Denver Center
12:01AM 39.6919 -102.8419 92° East 469 540 38,100 1,620 Climbing Denver Center
12:02AM 39.6864 -102.6783 92° East 462 532 39,500 1,320 Climbing Denver Center
12:03AM 39.6803 -102.4942 92° East 457 526 40,900 720 Climbing Denver Center
12:04AM 39.6750 -102.3342 92° East 464 534 41,000  Climbing Denver Center
12:05AM 39.6692 -102.1736 93° East 468 539 41,000  Level Denver Center
12:06AM 39.6625 -101.9875 93° East 464 534 41,000  Level Denver Center
12:07AM 39.6567 -101.8278 93° East 465 535 41,000  Level Denver Center
12:08AM 39.6489 -101.6408 93° East 465 535 41,000  Level Denver Center
12:09AM 39.6419 -101.4800 93° East 469 540 41,000  Level Denver Center
12:10AM 39.6350 -101.3186 93° East 469 540 41,000  Level Denver Center
12:11AM 39.6261 -101.1286 93° East 474 545 41,000  Level Denver Center
12:12AM 39.6197 -100.9703 93° East 468 539 41,000  Level Denver Center
12:13AM 39.6119 -100.8106 94° East 465 535 41,000  Level Denver Center
12:14AM 39.6031 -100.6242 93° East 466 536 41,000  Level Denver Center
12:15AM 39.5956 -100.4647 93° East 466 536 41,000  Level Denver Center
12:16AM 39.5853 -100.2786 94° East 464 534 41,000  Level Denver Center
12:17AM 39.5769 -100.1233 94° East 456 525 41,000  Level Denver Center
12:19AM 39.5625 -99.8636 94° East 462 532 41,000  Level Denver Center
12:20AM 39.5528 -99.7000 94° East 458 527 41,000  Level Denver Center
12:21AM 39.5431 -99.5356 94° East 460 529 41,000  Level Denver Center
12:22AM 39.5333 -99.3694 94° East 463 533 41,000  Level Denver Center
12:24AM 39.5131 -99.0356 94° East 463 533 41,000  Level Kansas City Center
12:25AM 39.5022 -98.8728 95° East 458 527 41,000  Level Kansas City Center
12:25AM 39.4986 -98.8100 94° East 459 528 41,000  Level Minneapolis Center
12:26AM 39.4892 -98.6772 95° East 462 532 41,000  Level Denver Center
12:27AM 39.4783 -98.5133 95° East 461 531 41,000  Level Denver Center
12:28AM 39.4669 -98.3458 95° East 467 537 41,000  Level Denver Center
12:29AM 39.4544 -98.1797 96° East 468 539 41,000  Level Denver Center
12:30AM 39.4461 -98.0383 94° East 466 536 41,000  Level Kansas City Center
12:31AM 39.4342 -97.8803 96° East 463 533 41,000  Level Kansas City Center
12:32AM 39.4219 -97.7122 95° East 464 534 41,000  Level Kansas City Center
12:33AM 39.4094 -97.5492 96° East 458 527 41,000 -360 Level Kansas City Center
12:34AM 39.3967 -97.3853 96° East 452 520 40,300 -840 Descending Kansas City Center
12:35AM 39.3881 -97.2328 94° East 447 514 39,400 -660 Descending Kansas City Center
12:36AM 39.3797 -97.0783 94° East 449 517 39,000 -600 Descending Kansas City Center
12:37AM 39.3675 -96.9014 95° East 445 512 38,200 -900 Descending Kansas City Center
12:38AM 39.3572 -96.7500 95° East 441 507 37,300 -600 Descending Kansas City Center
12:39AM 39.3464 -96.5967 95° East 447 514 37,000 -180 Descending Kansas City Center
12:40AM 39.3367 -96.4442 95° East 450 518 37,000  Level Kansas City Center
12:41AM 39.3253 -96.2819 95° East 453 521 37,000  Level Kansas City Center
12:42AM 39.3103 -96.1044 96° East 456 525 37,000  Level Kansas City Center
12:43AM 39.2992 -95.9494 95° East 455 524 37,000  Level Kansas City Center
12:44AM 39.2861 -95.7681 95° East 454 522 37,000  Level Kansas City Center
12:45AM 39.2739 -95.6125 96° East 454 522 37,000  Level Kansas City Center
12:46AM 39.2603 -95.4372 96° East 457 526 37,000  Level Kansas City Center
12:47AM 39.2475 -95.2742 96° East 458 527 37,000  Level Kansas City Center
12:48AM 39.2336 -95.1128 96° East 456 525 37,000  Level Kansas City Center
12:49AM 39.2208 -94.9500 96° East 457 526 37,000  Level Kansas City Center
12:50AM 39.2067 -94.7925 97° East 462 532 37,000  Level Kansas City Center
12:51AM 39.1947 -94.6353 96° East 462 532 37,000  Level Kansas City Center
12:52AM 39.1808 -94.4794 97° East 457 526 37,000  Level Kansas City Center
12:53AM 39.1650 -94.2967 96° East 459 528 37,000  Level Kansas City Center
12:54AM 39.1508 -94.1411 97° East 458 527 37,000  Level Kansas City Center
12:55AM 39.1367 -93.9861 97° East 457 526 37,000  Level Kansas City Center
12:56AM 39.1222 -93.8311 97° East 454 522 37,000  Level Kansas City Center
12:57AM 39.1058 -93.6506 97° East 455 524 37,000  Level Kansas City Center
12:58AM 39.0908 -93.4956 97° East 456 525 37,000  Level Kansas City Center
12:59AM 39.0781 -93.3519 96° East 452 520 37,000  Level Kansas City Center
01:00AM 39.0631 -93.1928 97° East 453 521 37,000  Level Kansas City Center
01:01AM 39.0467 -93.0344 98° East 453 521 37,000  Level Kansas City Center
01:02AM 39.0272 -92.8450 97° East 452 520 37,000 -1,020 Level Kansas City Center
01:03AM 39.0136 -92.7064 97° East 446 513 35,000 -2,160 Descending Kansas City Center
01:04AM 38.9975 -92.5525 98° East 437 503 32,700 -2,340 Descending Kansas City Center
01:05AM 38.9814 -92.3997 98° East 432 497 30,400 -2,280 Descending Kansas City Center
01:06AM 38.9650 -92.2503 98° East 425 489 28,200 -2,160 Descending Kansas City Center
01:07AM 38.9500 -92.1064 98° East 411 473 26,100 -2,100 Descending Kansas City Center
01:08AM 38.9347 -91.9664 98° East 399 459 24,000 -2,100 Descending Kansas City Center
01:09AM 38.9200 -91.8311 98° East 386 444 22,000 -2,040 Descending Kansas City Center
01:10AM 38.9044 -91.6914 98° East 376 433 19,900 -2,040 Descending Kansas City Center
01:11AM 38.8897 -91.5628 98° East 368 423 18,000 -1,920 Descending Kansas City Center
01:12AM 38.8747 -91.4367 99° East 361 415 16,100 -2,280 Descending Kansas City Center
01:13AM 38.8606 -91.3106 98° East 359 413 13,500 -2,340 Descending Kansas City Center
01:14AM 38.8472 -91.1875 98° East 353 406 11,500 -1,500 Descending Kansas City Center
01:15AM 38.8408 -91.0711 94° East 332 382 10,600 -1,140 Descending Kansas City Center
01:16AM 38.8344 -90.9669 94° East 302 348 9,300 -1,380 Descending Kansas City Center
01:17AM 38.8275 -90.8664 95° East 289 333 7,900 -1,440 Descending Kansas City Center
01:18AM 38.8211 -90.7664 95° East 285 328 6,500 -1,380 Descending Kansas City Center
01:19AM 38.8144 -90.6753 95° East 273 314 5,200 -1,380 Descending Kansas City Center
01:20AM 38.8097 -90.5939 94° East 249 287 3,800 -1,200 Descending Kansas City Center
01:21AM 38.8042 -90.5197 95° East 228 262 2,800 -900 Descending Kansas City Center
01:22AM 38.7931 -90.4583 103° East 198 228 2,000 -840 Descending Kansas City Center
01:23AM 38.7725 -90.4158 122° Southeast 161 185 1,200 -720 Descending Kansas City Center
01:24AM 38.7539 -90.3781 122° Southeast 138 159 600 -600 Descending Kansas City Center
01:26AM 38.7487 -90.3700 108° East  Level Estimated